sensor_id;sensor_type;location;lat;lon;timestamp;P1;durP1;ratioP1;P2;durP2;ratioP2
12120;SDS011;6124;59.460;17.908;2022-11-11T00:02:16;7.90;;;2.17;;
12120;SDS011;6124;59.460;17.908;2022-11-11T00:04:43;7.83;;;2.10;;
12120;SDS011;6124;59.460;17.908;2022-11-11T00:07:12;4.53;;;1.63;;
12120;SDS011;6124;59.460;17.908;2022-11-11T00:09:39;6.13;;;1.70;;
12120;SDS011;6124;59.460;17.908;2022-11-11T00:12:06;4.53;;;1.63;;
12120;SDS011;6124;59.460;17.908;2022-11-11T00:14:33;4.23;;;1.60;;
12120;SDS011;6124;59.460;17.908;2022-11-11T00:17:01;4.70;;;1.40;;
12120;SDS011;6124;59.460;17.908;2022-11-11T00:19:45;6.00;;;1.43;;
12120;SDS011;6124;59.460;17.908;2022-11-11T00:22:31;5.27;;;1.60;;
12120;SDS011;6124;59.460;17.908;2022-11-11T00:25:16;5.07;;;1.73;;
12120;SDS011;6124;59.460;17.908;2022-11-11T00:27:44;7.17;;;1.87;;
12120;SDS011;6124;59.460;17.908;2022-11-11T00:30:12;8.43;;;2.00;;
12120;SDS011;6124;59.460;17.908;2022-11-11T00:32:39;5.53;;;1.70;;
12120;SDS011;6124;59.460;17.908;2022-11-11T00:35:07;7.13;;;2.00;;
12120;SDS011;6124;59.460;17.908;2022-11-11T00:37:53;7.07;;;1.90;;
12120;SDS011;6124;59.460;17.908;2022-11-11T00:40:20;7.20;;;1.70;;
12120;SDS011;6124;59.460;17.908;2022-11-11T00:42:47;6.93;;;1.73;;
12120;SDS011;6124;59.460;17.908;2022-11-11T00:45:14;5.23;;;1.93;;
12120;SDS011;6124;59.460;17.908;2022-11-11T00:47:42;6.47;;;1.80;;
12120;SDS011;6124;59.460;17.908;2022-11-11T00:50:27;5.43;;;1.97;;
12120;SDS011;6124;59.460;17.908;2022-11-11T00:53:14;6.57;;;1.63;;
12120;SDS011;6124;59.460;17.908;2022-11-11T00:55:42;5.93;;;1.90;;
12120;SDS011;6124;59.460;17.908;2022-11-11T00:58:09;5.73;;;1.70;;
12120;SDS011;6124;59.460;17.908;2022-11-11T01:00:37;6.73;;;1.57;;
12120;SDS011;6124;59.460;17.908;2022-11-11T01:03:04;5.20;;;1.80;;
12120;SDS011;6124;59.460;17.908;2022-11-11T01:05:31;3.30;;;1.30;;
12120;SDS011;6124;59.460;17.908;2022-11-11T01:07:59;3.63;;;1.33;;
12120;SDS011;6124;59.460;17.908;2022-11-11T01:10:27;5.27;;;1.70;;
12120;SDS011;6124;59.460;17.908;2022-11-11T01:13:11;5.43;;;1.70;;
12120;SDS011;6124;59.460;17.908;2022-11-11T01:15:39;3.40;;;1.40;;
12120;SDS011;6124;59.460;17.908;2022-11-11T01:18:06;6.73;;;2.03;;
12120;SDS011;6124;59.460;17.908;2022-11-11T01:20:34;5.50;;;1.60;;
12120;SDS011;6124;59.460;17.908;2022-11-11T01:23:02;4.40;;;1.50;;
12120;SDS011;6124;59.460;17.908;2022-11-11T01:25:32;4.70;;;1.40;;
12120;SDS011;6124;59.460;17.908;2022-11-11T01:28:00;8.30;;;1.67;;
12120;SDS011;6124;59.460;17.908;2022-11-11T01:30:27;3.87;;;1.53;;
12120;SDS011;6124;59.460;17.908;2022-11-11T01:32:55;4.83;;;1.70;;
12120;SDS011;6124;59.460;17.908;2022-11-11T01:35:22;3.53;;;1.40;;
12120;SDS011;6124;59.460;17.908;2022-11-11T01:37:49;4.10;;;1.53;;
12120;SDS011;6124;59.460;17.908;2022-11-11T01:40:17;4.77;;;1.67;;
12120;SDS011;6124;59.460;17.908;2022-11-11T01:42:49;3.00;;;1.30;;
12120;SDS011;6124;59.460;17.908;2022-11-11T01:48:03;5.80;;;1.40;;
12120;SDS011;6124;59.460;17.908;2022-11-11T01:50:48;5.80;;;1.67;;
12120;SDS011;6124;59.460;17.908;2022-11-11T01:53:15;3.03;;;1.37;;
12120;SDS011;6124;59.460;17.908;2022-11-11T01:55:42;5.30;;;1.47;;
12120;SDS011;6124;59.460;17.908;2022-11-11T01:58:12;3.50;;;1.60;;
12120;SDS011;6124;59.460;17.908;2022-11-11T02:00:41;2.63;;;1.30;;
12120;SDS011;6124;59.460;17.908;2022-11-11T02:03:08;2.53;;;1.23;;
12120;SDS011;6124;59.460;17.908;2022-11-11T02:05:36;4.83;;;1.60;;
12120;SDS011;6124;59.460;17.908;2022-11-11T02:08:10;3.30;;;1.50;;
12120;SDS011;6124;59.460;17.908;2022-11-11T02:10:39;4.10;;;1.27;;
12120;SDS011;6124;59.460;17.908;2022-11-11T02:13:08;2.77;;;1.50;;
12120;SDS011;6124;59.460;17.908;2022-11-11T02:15:57;3.50;;;1.30;;
12120;SDS011;6124;59.460;17.908;2022-11-11T02:18:24;4.87;;;1.30;;
12120;SDS011;6124;59.460;17.908;2022-11-11T02:20:52;3.67;;;1.40;;
12120;SDS011;6124;59.460;17.908;2022-11-11T02:23:21;3.73;;;1.30;;
12120;SDS011;6124;59.460;17.908;2022-11-11T02:25:51;3.57;;;1.10;;
12120;SDS011;6124;59.460;17.908;2022-11-11T02:28:19;3.17;;;1.13;;
12120;SDS011;6124;59.460;17.908;2022-11-11T02:30:47;5.63;;;1.13;;
12120;SDS011;6124;59.460;17.908;2022-11-11T02:33:14;5.20;;;1.80;;
12120;SDS011;6124;59.460;17.908;2022-11-11T02:35:42;4.87;;;1.40;;
12120;SDS011;6124;59.460;17.908;2022-11-11T02:38:10;10.30;;;1.33;;
12120;SDS011;6124;59.460;17.908;2022-11-11T02:40:38;5.80;;;1.37;;
12120;SDS011;6124;59.460;17.908;2022-11-11T02:43:29;3.60;;;1.30;;
12120;SDS011;6124;59.460;17.908;2022-11-11T02:45:56;4.30;;;1.37;;
12120;SDS011;6124;59.460;17.908;2022-11-11T02:48:24;3.17;;;1.33;;
12120;SDS011;6124;59.460;17.908;2022-11-11T02:50:51;4.70;;;1.23;;
12120;SDS011;6124;59.460;17.908;2022-11-11T02:53:19;5.40;;;1.40;;
12120;SDS011;6124;59.460;17.908;2022-11-11T02:55:47;1.93;;;1.20;;
12120;SDS011;6124;59.460;17.908;2022-11-11T02:58:14;6.30;;;1.53;;
12120;SDS011;6124;59.460;17.908;2022-11-11T03:00:43;5.23;;;1.63;;
12120;SDS011;6124;59.460;17.908;2022-11-11T03:03:10;2.97;;;1.30;;
12120;SDS011;6124;59.460;17.908;2022-11-11T03:05:37;6.47;;;1.53;;
12120;SDS011;6124;59.460;17.908;2022-11-11T03:08:05;2.60;;;1.20;;
12120;SDS011;6124;59.460;17.908;2022-11-11T03:10:32;3.07;;;1.30;;
12120;SDS011;6124;59.460;17.908;2022-11-11T03:12:59;2.27;;;1.20;;
12120;SDS011;6124;59.460;17.908;2022-11-11T03:15:26;2.97;;;1.40;;
12120;SDS011;6124;59.460;17.908;2022-11-11T03:17:55;3.60;;;1.30;;
12120;SDS011;6124;59.460;17.908;2022-11-11T03:20:21;3.67;;;1.20;;
12120;SDS011;6124;59.460;17.908;2022-11-11T03:23:07;3.17;;;1.10;;
12120;SDS011;6124;59.460;17.908;2022-11-11T03:25:36;2.67;;;1.30;;
12120;SDS011;6124;59.460;17.908;2022-11-11T03:28:02;4.63;;;1.50;;
12120;SDS011;6124;59.460;17.908;2022-11-11T03:30:30;3.50;;;1.30;;
12120;SDS011;6124;59.460;17.908;2022-11-11T03:32:59;2.50;;;1.40;;
12120;SDS011;6124;59.460;17.908;2022-11-11T03:35:26;3.50;;;1.10;;
12120;SDS011;6124;59.460;17.908;2022-11-11T03:37:53;5.90;;;1.40;;
12120;SDS011;6124;59.460;17.908;2022-11-11T03:40:38;2.43;;;1.10;;
12120;SDS011;6124;59.460;17.908;2022-11-11T03:43:06;8.47;;;1.40;;
12120;SDS011;6124;59.460;17.908;2022-11-11T03:45:33;3.83;;;1.10;;
12120;SDS011;6124;59.460;17.908;2022-11-11T03:48:01;3.37;;;1.40;;
12120;SDS011;6124;59.460;17.908;2022-11-11T03:50:29;2.83;;;1.33;;
12120;SDS011;6124;59.460;17.908;2022-11-11T03:52:57;3.40;;;1.27;;
12120;SDS011;6124;59.460;17.908;2022-11-11T03:55:24;2.17;;;1.10;;
12120;SDS011;6124;59.460;17.908;2022-11-11T03:57:51;3.57;;;1.07;;
12120;SDS011;6124;59.460;17.908;2022-11-11T04:00:19;1.80;;;1.30;;
12120;SDS011;6124;59.460;17.908;2022-11-11T04:02:47;4.10;;;1.37;;
12120;SDS011;6124;59.460;17.908;2022-11-11T04:05:33;1.37;;;0.90;;
12120;SDS011;6124;59.460;17.908;2022-11-11T04:08:19;2.93;;;0.90;;
12120;SDS011;6124;59.460;17.908;2022-11-11T04:11:04;1.37;;;1.00;;
12120;SDS011;6124;59.460;17.908;2022-11-11T04:13:33;3.53;;;1.00;;
12120;SDS011;6124;59.460;17.908;2022-11-11T04:16:17;3.40;;;1.00;;
12120;SDS011;6124;59.460;17.908;2022-11-11T04:18:45;2.03;;;1.00;;
12120;SDS011;6124;59.460;17.908;2022-11-11T04:21:31;2.33;;;1.10;;
12120;SDS011;6124;59.460;17.908;2022-11-11T04:24:11;3.17;;;1.17;;
12120;SDS011;6124;59.460;17.908;2022-11-11T04:26:56;3.23;;;1.20;;
12120;SDS011;6124;59.460;17.908;2022-11-11T04:29:24;3.67;;;1.17;;
12120;SDS011;6124;59.460;17.908;2022-11-11T04:31:54;5.63;;;1.20;;
12120;SDS011;6124;59.460;17.908;2022-11-11T04:34:39;2.40;;;1.10;;
12120;SDS011;6124;59.460;17.908;2022-11-11T04:37:07;4.50;;;1.00;;
12120;SDS011;6124;59.460;17.908;2022-11-11T04:39:35;2.40;;;1.00;;
12120;SDS011;6124;59.460;17.908;2022-11-11T04:42:20;5.23;;;1.20;;
12120;SDS011;6124;59.460;17.908;2022-11-11T04:44:47;4.07;;;1.33;;
12120;SDS011;6124;59.460;17.908;2022-11-11T04:47:32;2.63;;;0.87;;
12120;SDS011;6124;59.460;17.908;2022-11-11T04:49:59;3.90;;;1.23;;
12120;SDS011;6124;59.460;17.908;2022-11-11T04:52:28;2.83;;;1.10;;
12120;SDS011;6124;59.460;17.908;2022-11-11T04:54:56;2.53;;;0.90;;
12120;SDS011;6124;59.460;17.908;2022-11-11T04:57:41;5.67;;;1.40;;
12120;SDS011;6124;59.460;17.908;2022-11-11T05:00:09;4.83;;;0.87;;
12120;SDS011;6124;59.460;17.908;2022-11-11T05:02:37;3.27;;;1.30;;
12120;SDS011;6124;59.460;17.908;2022-11-11T05:05:22;2.70;;;1.30;;
12120;SDS011;6124;59.460;17.908;2022-11-11T05:07:51;3.60;;;1.40;;
12120;SDS011;6124;59.460;17.908;2022-11-11T05:10:35;4.90;;;1.37;;
12120;SDS011;6124;59.460;17.908;2022-11-11T05:13:03;4.13;;;1.40;;
12120;SDS011;6124;59.460;17.908;2022-11-11T05:15:49;4.37;;;1.40;;
12120;SDS011;6124;59.460;17.908;2022-11-11T05:18:34;4.13;;;1.30;;
12120;SDS011;6124;59.460;17.908;2022-11-11T05:21:19;4.70;;;1.50;;
12120;SDS011;6124;59.460;17.908;2022-11-11T05:23:49;5.47;;;1.43;;
12120;SDS011;6124;59.460;17.908;2022-11-11T05:26:34;3.20;;;1.50;;
12120;SDS011;6124;59.460;17.908;2022-11-11T05:29:01;6.83;;;1.83;;
12120;SDS011;6124;59.460;17.908;2022-11-11T05:31:29;3.67;;;1.50;;
12120;SDS011;6124;59.460;17.908;2022-11-11T05:33:56;5.13;;;1.53;;
12120;SDS011;6124;59.460;17.908;2022-11-11T05:36:23;6.63;;;1.60;;
12120;SDS011;6124;59.460;17.908;2022-11-11T05:38:52;5.60;;;1.87;;
12120;SDS011;6124;59.460;17.908;2022-11-11T05:41:19;4.80;;;1.43;;
12120;SDS011;6124;59.460;17.908;2022-11-11T05:43:46;5.30;;;1.50;;
12120;SDS011;6124;59.460;17.908;2022-11-11T05:46:14;6.67;;;1.70;;
12120;SDS011;6124;59.460;17.908;2022-11-11T05:48:41;6.13;;;1.80;;
12120;SDS011;6124;59.460;17.908;2022-11-11T05:51:22;4.93;;;1.60;;
12120;SDS011;6124;59.460;17.908;2022-11-11T05:53:55;5.60;;;1.73;;
12120;SDS011;6124;59.460;17.908;2022-11-11T05:56:22;4.80;;;1.87;;
12120;SDS011;6124;59.460;17.908;2022-11-11T05:58:49;4.80;;;1.23;;
12120;SDS011;6124;59.460;17.908;2022-11-11T06:01:17;6.23;;;1.83;;
12120;SDS011;6124;59.460;17.908;2022-11-11T06:03:44;5.00;;;1.50;;
12120;SDS011;6124;59.460;17.908;2022-11-11T06:06:12;5.27;;;1.53;;
12120;SDS011;6124;59.460;17.908;2022-11-11T06:08:39;4.67;;;1.67;;
12120;SDS011;6124;59.460;17.908;2022-11-11T06:11:08;4.10;;;1.50;;
12120;SDS011;6124;59.460;17.908;2022-11-11T06:13:35;5.07;;;1.63;;
12120;SDS011;6124;59.460;17.908;2022-11-11T06:16:03;2.90;;;1.27;;
12120;SDS011;6124;59.460;17.908;2022-11-11T06:18:30;5.87;;;2.23;;
12120;SDS011;6124;59.460;17.908;2022-11-11T06:20:58;5.30;;;1.43;;
12120;SDS011;6124;59.460;17.908;2022-11-11T06:23:25;4.40;;;1.60;;
12120;SDS011;6124;59.460;17.908;2022-11-11T06:25:53;6.87;;;1.70;;
12120;SDS011;6124;59.460;17.908;2022-11-11T06:28:42;4.10;;;1.40;;
12120;SDS011;6124;59.460;17.908;2022-11-11T06:31:10;4.47;;;1.60;;
12120;SDS011;6124;59.460;17.908;2022-11-11T06:33:37;6.27;;;1.60;;
12120;SDS011;6124;59.460;17.908;2022-11-11T06:36:05;5.70;;;1.73;;
12120;SDS011;6124;59.460;17.908;2022-11-11T06:38:32;4.90;;;1.53;;
12120;SDS011;6124;59.460;17.908;2022-11-11T06:41:00;5.80;;;1.63;;
12120;SDS011;6124;59.460;17.908;2022-11-11T06:43:27;6.93;;;1.90;;
12120;SDS011;6124;59.460;17.908;2022-11-11T06:45:56;7.33;;;1.77;;
12120;SDS011;6124;59.460;17.908;2022-11-11T06:48:25;5.53;;;1.80;;
12120;SDS011;6124;59.460;17.908;2022-11-11T06:50:53;5.37;;;1.80;;
12120;SDS011;6124;59.460;17.908;2022-11-11T06:53:21;4.80;;;1.60;;
12120;SDS011;6124;59.460;17.908;2022-11-11T06:55:50;5.50;;;1.63;;
12120;SDS011;6124;59.460;17.908;2022-11-11T06:58:18;5.97;;;2.00;;
12120;SDS011;6124;59.460;17.908;2022-11-11T07:00:46;7.10;;;1.87;;
12120;SDS011;6124;59.460;17.908;2022-11-11T07:03:16;3.97;;;1.80;;
12120;SDS011;6124;59.460;17.908;2022-11-11T07:05:45;6.97;;;1.90;;
12120;SDS011;6124;59.460;17.908;2022-11-11T07:08:13;7.07;;;1.97;;
12120;SDS011;6124;59.460;17.908;2022-11-11T07:10:42;7.57;;;1.90;;
12120;SDS011;6124;59.460;17.908;2022-11-11T07:13:10;6.57;;;1.80;;
12120;SDS011;6124;59.460;17.908;2022-11-11T07:15:37;5.30;;;2.10;;
12120;SDS011;6124;59.460;17.908;2022-11-11T07:18:05;7.13;;;2.43;;
12120;SDS011;6124;59.460;17.908;2022-11-11T07:20:33;5.80;;;2.00;;
12120;SDS011;6124;59.460;17.908;2022-11-11T07:23:01;8.67;;;2.03;;
12120;SDS011;6124;59.460;17.908;2022-11-11T07:25:28;7.00;;;2.20;;
12120;SDS011;6124;59.460;17.908;2022-11-11T07:27:55;6.77;;;2.00;;
12120;SDS011;6124;59.460;17.908;2022-11-11T07:30:23;7.60;;;2.10;;
12120;SDS011;6124;59.460;17.908;2022-11-11T07:32:50;8.53;;;2.43;;
12120;SDS011;6124;59.460;17.908;2022-11-11T07:35:18;9.53;;;2.10;;
12120;SDS011;6124;59.460;17.908;2022-11-11T07:37:47;9.27;;;2.27;;
12120;SDS011;6124;59.460;17.908;2022-11-11T07:40:15;5.60;;;2.17;;
12120;SDS011;6124;59.460;17.908;2022-11-11T07:42:43;5.93;;;2.57;;
12120;SDS011;6124;59.460;17.908;2022-11-11T07:45:10;6.53;;;2.47;;
12120;SDS011;6124;59.460;17.908;2022-11-11T07:47:38;7.50;;;2.30;;
12120;SDS011;6124;59.460;17.908;2022-11-11T07:50:05;6.63;;;2.33;;
12120;SDS011;6124;59.460;17.908;2022-11-11T07:52:33;6.60;;;2.20;;
12120;SDS011;6124;59.460;17.908;2022-11-11T07:55:02;10.17;;;2.83;;
12120;SDS011;6124;59.460;17.908;2022-11-11T07:57:30;11.03;;;2.30;;
12120;SDS011;6124;59.460;17.908;2022-11-11T07:59:57;5.23;;;2.27;;
12120;SDS011;6124;59.460;17.908;2022-11-11T08:02:24;11.00;;;2.93;;
12120;SDS011;6124;59.460;17.908;2022-11-11T08:04:51;8.27;;;2.60;;
12120;SDS011;6124;59.460;17.908;2022-11-11T08:07:19;10.07;;;2.70;;
12120;SDS011;6124;59.460;17.908;2022-11-11T08:09:46;9.13;;;2.70;;
12120;SDS011;6124;59.460;17.908;2022-11-11T08:12:15;8.00;;;2.77;;
12120;SDS011;6124;59.460;17.908;2022-11-11T08:14:59;10.60;;;2.60;;
12120;SDS011;6124;59.460;17.908;2022-11-11T08:17:26;7.73;;;2.60;;
12120;SDS011;6124;59.460;17.908;2022-11-11T08:19:54;8.90;;;2.57;;
12120;SDS011;6124;59.460;17.908;2022-11-11T08:22:21;10.73;;;3.30;;
12120;SDS011;6124;59.460;17.908;2022-11-11T08:24:48;9.97;;;2.97;;
12120;SDS011;6124;59.460;17.908;2022-11-11T08:27:17;9.57;;;2.43;;
12120;SDS011;6124;59.460;17.908;2022-11-11T08:29:44;11.03;;;3.07;;
12120;SDS011;6124;59.460;17.908;2022-11-11T08:32:11;8.80;;;2.90;;
12120;SDS011;6124;59.460;17.908;2022-11-11T08:34:38;10.70;;;3.03;;
12120;SDS011;6124;59.460;17.908;2022-11-11T08:37:06;10.27;;;3.23;;
12120;SDS011;6124;59.460;17.908;2022-11-11T08:39:33;15.03;;;3.40;;
12120;SDS011;6124;59.460;17.908;2022-11-11T08:42:00;9.47;;;2.90;;
12120;SDS011;6124;59.460;17.908;2022-11-11T08:44:29;11.23;;;3.23;;
12120;SDS011;6124;59.460;17.908;2022-11-11T08:46:56;9.47;;;2.90;;
12120;SDS011;6124;59.460;17.908;2022-11-11T08:49:23;13.80;;;3.40;;
12120;SDS011;6124;59.460;17.908;2022-11-11T08:51:51;9.50;;;3.00;;
12120;SDS011;6124;59.460;17.908;2022-11-11T08:54:18;8.97;;;3.23;;
12120;SDS011;6124;59.460;17.908;2022-11-11T08:56:45;11.77;;;3.03;;
12120;SDS011;6124;59.460;17.908;2022-11-11T08:59:12;11.20;;;2.90;;
12120;SDS011;6124;59.460;17.908;2022-11-11T09:01:41;11.07;;;2.97;;
12120;SDS011;6124;59.460;17.908;2022-11-11T09:04:08;8.17;;;3.13;;
12120;SDS011;6124;59.460;17.908;2022-11-11T09:06:35;12.03;;;3.13;;
12120;SDS011;6124;59.460;17.908;2022-11-11T09:09:05;11.03;;;3.27;;
12120;SDS011;6124;59.460;17.908;2022-11-11T09:11:32;11.73;;;3.33;;
12120;SDS011;6124;59.460;17.908;2022-11-11T09:14:00;13.33;;;3.23;;
12120;SDS011;6124;59.460;17.908;2022-11-11T09:16:27;11.47;;;2.93;;
12120;SDS011;6124;59.460;17.908;2022-11-11T09:18:56;11.93;;;3.30;;
12120;SDS011;6124;59.460;17.908;2022-11-11T09:21:23;11.67;;;3.13;;
12120;SDS011;6124;59.460;17.908;2022-11-11T09:23:50;11.87;;;3.00;;
12120;SDS011;6124;59.460;17.908;2022-11-11T09:26:18;12.10;;;2.80;;
12120;SDS011;6124;59.460;17.908;2022-11-11T09:28:45;12.20;;;3.30;;
12120;SDS011;6124;59.460;17.908;2022-11-11T09:31:12;9.73;;;3.00;;
12120;SDS011;6124;59.460;17.908;2022-11-11T09:33:39;9.63;;;3.00;;
12120;SDS011;6124;59.460;17.908;2022-11-11T09:36:08;12.60;;;3.57;;
12120;SDS011;6124;59.460;17.908;2022-11-11T09:38:36;10.33;;;3.10;;
12120;SDS011;6124;59.460;17.908;2022-11-11T09:41:07;10.77;;;3.00;;
12120;SDS011;6124;59.460;17.908;2022-11-11T09:43:41;7.90;;;2.50;;
12120;SDS011;6124;59.460;17.908;2022-11-11T09:46:11;8.47;;;2.80;;
12120;SDS011;6124;59.460;17.908;2022-11-11T09:48:44;12.63;;;3.27;;
12120;SDS011;6124;59.460;17.908;2022-11-11T09:51:17;10.47;;;3.53;;
12120;SDS011;6124;59.460;17.908;2022-11-11T09:53:46;8.83;;;2.90;;
12120;SDS011;6124;59.460;17.908;2022-11-11T09:56:16;11.50;;;2.80;;
12120;SDS011;6124;59.460;17.908;2022-11-11T09:58:45;11.93;;;3.20;;
12120;SDS011;6124;59.460;17.908;2022-11-11T10:01:13;9.57;;;3.10;;
12120;SDS011;6124;59.460;17.908;2022-11-11T10:03:43;14.10;;;3.07;;
12120;SDS011;6124;59.460;17.908;2022-11-11T10:06:14;12.87;;;3.00;;
12120;SDS011;6124;59.460;17.908;2022-11-11T10:08:45;7.13;;;2.60;;
12120;SDS011;6124;59.460;17.908;2022-11-11T10:11:15;11.43;;;3.23;;
12120;SDS011;6124;59.460;17.908;2022-11-11T10:13:44;8.27;;;3.03;;
12120;SDS011;6124;59.460;17.908;2022-11-11T10:16:13;8.07;;;3.17;;
12120;SDS011;6124;59.460;17.908;2022-11-11T10:18:47;7.73;;;2.90;;
12120;SDS011;6124;59.460;17.908;2022-11-11T10:21:18;11.80;;;2.80;;
12120;SDS011;6124;59.460;17.908;2022-11-11T10:23:51;9.53;;;3.13;;
12120;SDS011;6124;59.460;17.908;2022-11-11T10:26:21;13.20;;;3.20;;
12120;SDS011;6124;59.460;17.908;2022-11-11T10:28:51;9.43;;;2.50;;
12120;SDS011;6124;59.460;17.908;2022-11-11T10:31:20;12.10;;;2.67;;
12120;SDS011;6124;59.460;17.908;2022-11-11T10:33:49;9.70;;;2.60;;
12120;SDS011;6124;59.460;17.908;2022-11-11T10:36:17;8.60;;;2.83;;
12120;SDS011;6124;59.460;17.908;2022-11-11T10:38:46;8.23;;;2.90;;
12120;SDS011;6124;59.460;17.908;2022-11-11T10:41:18;9.00;;;2.70;;
12120;SDS011;6124;59.460;17.908;2022-11-11T10:43:46;7.30;;;2.50;;
12120;SDS011;6124;59.460;17.908;2022-11-11T10:46:14;10.17;;;2.60;;
12120;SDS011;6124;59.460;17.908;2022-11-11T10:48:45;7.57;;;2.30;;
12120;SDS011;6124;59.460;17.908;2022-11-11T10:51:14;7.87;;;2.53;;
12120;SDS011;6124;59.460;17.908;2022-11-11T10:53:43;9.47;;;2.43;;
12120;SDS011;6124;59.460;17.908;2022-11-11T10:56:14;7.47;;;2.47;;
12120;SDS011;6124;59.460;17.908;2022-11-11T10:58:45;8.07;;;2.47;;
12120;SDS011;6124;59.460;17.908;2022-11-11T11:01:15;6.97;;;2.67;;
12120;SDS011;6124;59.460;17.908;2022-11-11T11:03:44;11.87;;;2.53;;
12120;SDS011;6124;59.460;17.908;2022-11-11T11:06:15;7.67;;;2.33;;
12120;SDS011;6124;59.460;17.908;2022-11-11T11:08:45;7.63;;;2.43;;
12120;SDS011;6124;59.460;17.908;2022-11-11T11:11:14;9.70;;;2.50;;
12120;SDS011;6124;59.460;17.908;2022-11-11T11:13:45;8.47;;;2.37;;
12120;SDS011;6124;59.460;17.908;2022-11-11T11:16:15;7.07;;;2.27;;
12120;SDS011;6124;59.460;17.908;2022-11-11T11:18:43;7.27;;;2.30;;
12120;SDS011;6124;59.460;17.908;2022-11-11T11:21:10;6.27;;;2.10;;
12120;SDS011;6124;59.460;17.908;2022-11-11T11:23:38;5.77;;;2.00;;
12120;SDS011;6124;59.460;17.908;2022-11-11T11:26:06;6.40;;;2.10;;
12120;SDS011;6124;59.460;17.908;2022-11-11T11:28:34;7.97;;;2.10;;
12120;SDS011;6124;59.460;17.908;2022-11-11T11:31:03;5.30;;;1.80;;
12120;SDS011;6124;59.460;17.908;2022-11-11T11:33:48;6.03;;;1.70;;
12120;SDS011;6124;59.460;17.908;2022-11-11T11:36:16;4.33;;;1.73;;
12120;SDS011;6124;59.460;17.908;2022-11-11T11:38:44;4.53;;;1.80;;
12120;SDS011;6124;59.460;17.908;2022-11-11T11:41:14;7.17;;;1.90;;
12120;SDS011;6124;59.460;17.908;2022-11-11T11:43:42;4.00;;;1.77;;
12120;SDS011;6124;59.460;17.908;2022-11-11T11:46:16;3.37;;;1.70;;
12120;SDS011;6124;59.460;17.908;2022-11-11T11:48:51;4.10;;;1.67;;
12120;SDS011;6124;59.460;17.908;2022-11-11T11:51:27;4.60;;;1.80;;
12120;SDS011;6124;59.460;17.908;2022-11-11T11:54:01;6.80;;;2.10;;
12120;SDS011;6124;59.460;17.908;2022-11-11T11:56:35;6.80;;;1.87;;
12120;SDS011;6124;59.460;17.908;2022-11-11T11:59:04;5.57;;;1.50;;
12120;SDS011;6124;59.460;17.908;2022-11-11T12:01:36;3.03;;;1.40;;
12120;SDS011;6124;59.460;17.908;2022-11-11T12:04:16;6.13;;;1.90;;
12120;SDS011;6124;59.460;17.908;2022-11-11T12:06:50;2.57;;;1.30;;
12120;SDS011;6124;59.460;17.908;2022-11-11T12:09:22;5.47;;;1.80;;
12120;SDS011;6124;59.460;17.908;2022-11-11T12:11:54;5.90;;;1.70;;
12120;SDS011;6124;59.460;17.908;2022-11-11T12:14:31;5.13;;;1.60;;
12120;SDS011;6124;59.460;17.908;2022-11-11T12:17:07;4.53;;;1.40;;
12120;SDS011;6124;59.460;17.908;2022-11-11T12:19:47;2.73;;;1.40;;
12120;SDS011;6124;59.460;17.908;2022-11-11T12:22:24;3.50;;;1.47;;
12120;SDS011;6124;59.460;17.908;2022-11-11T12:24:58;3.20;;;1.30;;
12120;SDS011;6124;59.460;17.908;2022-11-11T12:27:30;3.63;;;1.30;;
12120;SDS011;6124;59.460;17.908;2022-11-11T12:30:02;4.83;;;1.70;;
12120;SDS011;6124;59.460;17.908;2022-11-11T12:32:37;2.97;;;1.10;;
12120;SDS011;6124;59.460;17.908;2022-11-11T12:37:58;6.17;;;1.67;;
12120;SDS011;6124;59.460;17.908;2022-11-11T12:40:32;5.70;;;1.63;;
12120;SDS011;6124;59.460;17.908;2022-11-11T12:43:03;4.13;;;1.47;;
12120;SDS011;6124;59.460;17.908;2022-11-11T12:45:35;3.17;;;1.43;;
12120;SDS011;6124;59.460;17.908;2022-11-11T12:48:23;2.97;;;1.30;;
12120;SDS011;6124;59.460;17.908;2022-11-11T12:50:56;4.67;;;1.43;;
12120;SDS011;6124;59.460;17.908;2022-11-11T12:53:30;4.67;;;1.50;;
12120;SDS011;6124;59.460;17.908;2022-11-11T12:56:00;4.03;;;1.63;;
12120;SDS011;6124;59.460;17.908;2022-11-11T12:58:32;4.03;;;1.60;;
12120;SDS011;6124;59.460;17.908;2022-11-11T13:01:06;3.27;;;1.30;;
12120;SDS011;6124;59.460;17.908;2022-11-11T13:03:45;3.97;;;1.50;;
12120;SDS011;6124;59.460;17.908;2022-11-11T13:06:18;4.33;;;1.97;;
12120;SDS011;6124;59.460;17.908;2022-11-11T13:08:52;4.20;;;1.50;;
12120;SDS011;6124;59.460;17.908;2022-11-11T13:11:24;4.47;;;1.83;;
12120;SDS011;6124;59.460;17.908;2022-11-11T13:13:57;5.70;;;1.90;;
12120;SDS011;6124;59.460;17.908;2022-11-11T13:16:29;4.90;;;1.67;;
12120;SDS011;6124;59.460;17.908;2022-11-11T13:18:58;5.57;;;2.07;;
12120;SDS011;6124;59.460;17.908;2022-11-11T13:21:29;4.93;;;1.63;;
12120;SDS011;6124;59.460;17.908;2022-11-11T13:23:57;6.87;;;2.10;;
12120;SDS011;6124;59.460;17.908;2022-11-11T13:26:26;5.43;;;2.00;;
12120;SDS011;6124;59.460;17.908;2022-11-11T13:28:57;5.77;;;2.23;;
12120;SDS011;6124;59.460;17.908;2022-11-11T13:31:30;4.43;;;1.73;;
12120;SDS011;6124;59.460;17.908;2022-11-11T13:34:02;5.87;;;1.90;;
12120;SDS011;6124;59.460;17.908;2022-11-11T13:36:31;5.07;;;1.97;;
12120;SDS011;6124;59.460;17.908;2022-11-11T13:39:01;6.80;;;2.00;;
12120;SDS011;6124;59.460;17.908;2022-11-11T13:41:29;6.63;;;2.00;;
12120;SDS011;6124;59.460;17.908;2022-11-11T13:43:58;5.63;;;1.70;;
12120;SDS011;6124;59.460;17.908;2022-11-11T13:46:30;5.53;;;1.97;;
12120;SDS011;6124;59.460;17.908;2022-11-11T13:48:58;4.47;;;1.97;;
12120;SDS011;6124;59.460;17.908;2022-11-11T13:51:29;6.23;;;1.90;;
12120;SDS011;6124;59.460;17.908;2022-11-11T13:53:57;7.73;;;2.23;;
12120;SDS011;6124;59.460;17.908;2022-11-11T13:56:27;6.07;;;1.83;;
12120;SDS011;6124;59.460;17.908;2022-11-11T13:58:55;5.90;;;1.97;;
12120;SDS011;6124;59.460;17.908;2022-11-11T14:01:22;5.27;;;2.13;;
12120;SDS011;6124;59.460;17.908;2022-11-11T14:03:57;5.73;;;2.07;;
12120;SDS011;6124;59.460;17.908;2022-11-11T14:06:33;5.27;;;1.93;;
12120;SDS011;6124;59.460;17.908;2022-11-11T14:09:02;6.77;;;2.10;;
12120;SDS011;6124;59.460;17.908;2022-11-11T14:11:31;5.50;;;2.07;;
12120;SDS011;6124;59.460;17.908;2022-11-11T14:14:43;6.10;;;1.87;;
12120;SDS011;6124;59.460;17.908;2022-11-11T14:16:57;9.03;;;2.30;;
12120;SDS011;6124;59.460;17.908;2022-11-11T14:19:28;4.73;;;1.97;;
12120;SDS011;6124;59.460;17.908;2022-11-11T14:21:58;6.93;;;1.97;;
12120;SDS011;6124;59.460;17.908;2022-11-11T14:24:29;6.63;;;2.00;;
12120;SDS011;6124;59.460;17.908;2022-11-11T14:26:58;6.20;;;2.00;;
12120;SDS011;6124;59.460;17.908;2022-11-11T14:29:27;8.00;;;2.30;;
12120;SDS011;6124;59.460;17.908;2022-11-11T14:32:01;5.90;;;2.00;;
12120;SDS011;6124;59.460;17.908;2022-11-11T14:37:25;6.10;;;2.10;;
12120;SDS011;6124;59.460;17.908;2022-11-11T14:39:55;4.13;;;1.90;;
12120;SDS011;6124;59.460;17.908;2022-11-11T14:42:41;6.40;;;2.00;;
12120;SDS011;6124;59.460;17.908;2022-11-11T14:47:55;5.57;;;1.70;;
12120;SDS011;6124;59.460;17.908;2022-11-11T14:50:42;7.13;;;2.17;;
12120;SDS011;6124;59.460;17.908;2022-11-11T14:53:13;8.30;;;2.63;;
12120;SDS011;6124;59.460;17.908;2022-11-11T14:55:42;4.47;;;2.23;;
12120;SDS011;6124;59.460;17.908;2022-11-11T14:58:17;8.23;;;2.70;;
12120;SDS011;6124;59.460;17.908;2022-11-11T15:00:45;5.77;;;2.23;;
12120;SDS011;6124;59.460;17.908;2022-11-11T15:03:14;6.53;;;2.40;;
12120;SDS011;6124;59.460;17.908;2022-11-11T15:05:45;7.03;;;2.40;;
12120;SDS011;6124;59.460;17.908;2022-11-11T15:08:16;5.93;;;1.90;;
12120;SDS011;6124;59.460;17.908;2022-11-11T15:13:44;5.23;;;2.10;;
12120;SDS011;6124;59.460;17.908;2022-11-11T15:16:17;10.83;;;2.30;;
12120;SDS011;6124;59.460;17.908;2022-11-11T15:18:57;5.90;;;2.30;;
12120;SDS011;6124;59.460;17.908;2022-11-11T15:21:31;6.77;;;2.53;;